createdAt,value
2022-12-15T08:32:51.638Z,30.97
2022-12-15T08:35:59.076Z,28.77
2022-12-15T08:39:02.490Z,32.17
2022-12-15T08:42:05.296Z,30.00
2022-12-15T08:45:10.844Z,32.00
2022-12-15T08:48:13.375Z,31.60
2022-12-15T08:51:16.451Z,32.13
2022-12-15T08:54:20.180Z,32.07
2022-12-15T08:57:22.705Z,31.17
2022-12-15T09:00:26.570Z,30.10
2022-12-15T09:03:30.663Z,29.97
2022-12-15T09:06:35.525Z,31.47
2022-12-15T09:09:38.153Z,31.20
2022-12-15T09:12:40.632Z,32.30
2022-12-15T09:16:08.810Z,31.83
2022-12-15T09:19:08.262Z,29.77
2022-12-15T09:22:10.819Z,29.80
2022-12-15T09:25:13.340Z,32.23
2022-12-15T09:28:15.861Z,33.73
2022-12-15T09:31:22.235Z,31.60
2022-12-15T09:34:24.970Z,30.03
2022-12-15T09:37:27.473Z,31.23
2022-12-15T09:40:30.117Z,32.03
2022-12-15T09:43:35.274Z,35.30
2022-12-15T09:46:53.927Z,34.13
2022-12-15T09:49:58.092Z,33.83
2022-12-15T09:53:01.767Z,36.40
2022-12-15T09:56:08.146Z,34.73
2022-12-15T09:59:32.963Z,37.47
2022-12-15T10:03:01.085Z,34.33
2022-12-15T10:06:19.250Z,33.70
2022-12-15T10:09:28.551Z,36.50
2022-12-15T10:12:42.032Z,34.60
2022-12-15T10:15:57.132Z,33.43
2022-12-15T10:19:09.765Z,32.93
2022-12-15T10:22:15.250Z,33.47
2022-12-15T10:25:27.565Z,32.80
2022-12-15T10:28:52.904Z,32.13
2022-12-15T10:32:01.313Z,30.93
2022-12-15T10:35:13.852Z,31.37
2022-12-15T10:38:25.665Z,29.00
2022-12-15T10:44:39.651Z,26.97
2022-12-15T10:47:42.321Z,27.70
2022-12-15T10:50:50.091Z,28.63
2022-12-15T10:53:55.367Z,29.60
2022-12-15T10:56:59.722Z,28.90
2022-12-15T11:00:28.303Z,28.60
2022-12-15T11:03:31.656Z,30.27
2022-12-15T11:06:36.938Z,30.10
2022-12-15T11:09:40.944Z,28.98
2022-12-15T11:12:58.306Z,30.00
2022-12-15T11:16:16.125Z,31.08
2022-12-15T11:19:31.230Z,28.35
2022-12-15T11:22:44.425Z,29.27
2022-12-15T11:25:53.636Z,31.13
2022-12-15T11:29:01.317Z,29.77
2022-12-15T11:32:07.345Z,28.75
2022-12-15T11:35:14.261Z,29.02
2022-12-15T11:38:27.708Z,28.13
2022-12-15T11:41:42.215Z,26.95
2022-12-15T11:44:57.136Z,26.98
2022-12-15T11:48:11.581Z,27.92
2022-12-15T11:51:18.583Z,27.38
2022-12-15T11:54:28.798Z,26.27
2022-12-15T11:57:57.839Z,26.77
2022-12-15T12:01:10.861Z,26.05
2022-12-15T12:04:21.655Z,25.85
2022-12-15T12:07:41.977Z,26.77
2022-12-15T12:10:58.064Z,27.05
2022-12-15T12:14:14.496Z,27.83
2022-12-15T12:17:25.255Z,27.52
2022-12-15T12:20:36.710Z,24.70
2022-12-15T12:23:46.854Z,25.52
2022-12-15T12:26:58.329Z,24.83
2022-12-15T12:30:05.373Z,25.85
2022-12-15T12:33:14.085Z,26.30
2022-12-15T12:36:17.432Z,23.85
2022-12-15T12:39:23.450Z,25.10
2022-12-15T12:42:35.714Z,27.13
2022-12-15T12:45:51.626Z,26.83
2022-12-15T12:48:58.239Z,26.48
2022-12-15T12:52:04.981Z,25.50
2022-12-15T12:55:26.154Z,24.70
2022-12-15T12:58:35.432Z,27.38
2022-12-15T13:01:39.028Z,26.17
2022-12-15T13:04:44.416Z,25.63
2022-12-15T13:07:55.724Z,26.83
2022-12-15T13:11:36.857Z,25.35
2022-12-15T13:14:51.934Z,23.35
2022-12-15T13:17:58.823Z,25.15
2022-12-15T13:21:36.167Z,25.67
2022-12-15T13:24:44.871Z,25.02
2022-12-15T13:27:52.679Z,23.50
2022-12-15T13:31:29.109Z,25.02
2022-12-15T13:34:39.639Z,23.73
2022-12-15T13:37:50.452Z,24.00
2022-12-15T13:40:54.680Z,23.90
2022-12-15T13:43:59.610Z,23.88
2022-12-15T13:47:10.398Z,22.88
2022-12-15T13:50:19.002Z,24.95
2022-12-15T13:53:25.301Z,23.90
2022-12-15T13:56:50.736Z,24.58
2022-12-15T13:59:58.467Z,23.85
2022-12-15T14:03:06.817Z,22.63
2022-12-15T14:06:16.180Z,22.92
2022-12-15T14:09:24.841Z,23.92
2022-12-15T14:12:27.581Z,22.85
2022-12-15T14:15:32.566Z,22.48
2022-12-15T14:18:39.009Z,24.30
2022-12-15T14:21:49.900Z,22.83
2022-12-15T14:24:59.160Z,21.88
2022-12-15T14:28:01.683Z,21.35
2022-12-15T14:31:07.869Z,24.25
2022-12-15T14:34:24.590Z,21.73
2022-12-15T14:37:29.324Z,21.40
2022-12-15T14:40:32.346Z,21.20
2022-12-15T14:43:39.645Z,22.27
2022-12-15T14:46:47.468Z,22.23
2022-12-15T14:53:17.015Z,21.47
2022-12-15T14:56:30.545Z,22.58
2022-12-15T14:59:35.860Z,21.50
2022-12-15T15:02:39.979Z,22.17
2022-12-15T15:03:11.248Z,21.98
2022-12-15T15:05:44.048Z,21.48
2022-12-15T15:08:50.240Z,20.80
2022-12-15T15:11:56.889Z,22.20
2022-12-15T15:15:03.807Z,22.40
2022-12-15T15:18:06.455Z,20.40
2022-12-15T15:21:18.833Z,19.50
2022-12-15T15:24:26.115Z,20.97
2022-12-15T15:27:36.238Z,20.87
2022-12-15T15:30:42.956Z,19.53
2022-12-15T15:33:45.579Z,19.17
2022-12-15T15:36:48.155Z,19.77
2022-12-15T15:39:54.113Z,18.57
2022-12-15T15:42:56.845Z,17.17
2022-12-15T15:46:03.270Z,20.43
2022-12-15T15:49:09.093Z,19.70
2022-12-15T15:52:14.452Z,19.70
2022-12-15T15:55:26.210Z,18.10
2022-12-15T15:58:29.089Z,18.85
2022-12-15T16:01:32.073Z,20.10
2022-12-15T16:04:36.325Z,19.20
2022-12-15T16:07:39.150Z,18.27
2022-12-15T16:10:45.684Z,20.23
2022-12-15T16:13:49.229Z,20.27
2022-12-15T16:16:53.875Z,19.40
2022-12-15T16:19:56.378Z,17.97
2022-12-15T16:23:01.956Z,19.03
2022-12-15T16:26:06.353Z,18.47
2022-12-15T16:29:15.341Z,19.10
2022-12-15T16:32:17.873Z,19.17
2022-12-15T16:35:20.761Z,19.93
2022-12-15T16:38:26.426Z,22.47
